sensor_id;sensor_type;location;lat;lon;timestamp;P1;durP1;ratioP1;P2;durP2;ratioP2
78053;SDS011;67726;45.636;11.752;2023-03-04T00:01:41;62.60;;;34.13;;
78053;SDS011;67726;45.636;11.752;2023-03-04T00:04:06;57.17;;;32.08;;
78053;SDS011;67726;45.636;11.752;2023-03-04T00:06:32;65.03;;;34.63;;
78053;SDS011;67726;45.636;11.752;2023-03-04T00:08:58;59.42;;;34.40;;
78053;SDS011;67726;45.636;11.752;2023-03-04T00:11:24;59.63;;;32.33;;
78053;SDS011;67726;45.636;11.752;2023-03-04T00:13:49;56.60;;;29.50;;
78053;SDS011;67726;45.636;11.752;2023-03-04T00:16:15;55.03;;;31.63;;
78053;SDS011;67726;45.636;11.752;2023-03-04T00:18:41;58.22;;;31.80;;
78053;SDS011;67726;45.636;11.752;2023-03-04T00:21:06;57.83;;;31.23;;
78053;SDS011;67726;45.636;11.752;2023-03-04T00:23:32;59.42;;;31.15;;
78053;SDS011;67726;45.636;11.752;2023-03-04T00:25:58;55.70;;;31.45;;
78053;SDS011;67726;45.636;11.752;2023-03-04T00:28:24;53.13;;;30.80;;
78053;SDS011;67726;45.636;11.752;2023-03-04T00:30:49;59.67;;;32.07;;
78053;SDS011;67726;45.636;11.752;2023-03-04T00:33:15;57.35;;;29.35;;
78053;SDS011;67726;45.636;11.752;2023-03-04T00:35:41;55.55;;;29.50;;
78053;SDS011;67726;45.636;11.752;2023-03-04T00:38:07;56.70;;;30.20;;
78053;SDS011;67726;45.636;11.752;2023-03-04T00:40:33;54.20;;;30.13;;
78053;SDS011;67726;45.636;11.752;2023-03-04T00:42:59;52.77;;;27.50;;
78053;SDS011;67726;45.636;11.752;2023-03-04T00:45:24;50.93;;;26.93;;
78053;SDS011;67726;45.636;11.752;2023-03-04T00:47:50;54.03;;;27.60;;
78053;SDS011;67726;45.636;11.752;2023-03-04T00:50:15;48.10;;;27.75;;
78053;SDS011;67726;45.636;11.752;2023-03-04T00:52:41;48.40;;;27.47;;
78053;SDS011;67726;45.636;11.752;2023-03-04T00:55:07;51.78;;;28.10;;
78053;SDS011;67726;45.636;11.752;2023-03-04T00:57:33;53.10;;;29.07;;
78053;SDS011;67726;45.636;11.752;2023-03-04T00:59:59;48.22;;;26.23;;
78053;SDS011;67726;45.636;11.752;2023-03-04T01:02:25;49.38;;;26.45;;
78053;SDS011;67726;45.636;11.752;2023-03-04T01:04:50;50.00;;;26.50;;
78053;SDS011;67726;45.636;11.752;2023-03-04T01:07:16;53.10;;;28.47;;
78053;SDS011;67726;45.636;11.752;2023-03-04T01:09:42;48.28;;;27.90;;
78053;SDS011;67726;45.636;11.752;2023-03-04T01:12:08;49.92;;;25.45;;
78053;SDS011;67726;45.636;11.752;2023-03-04T01:14:34;50.07;;;27.10;;
78053;SDS011;67726;45.636;11.752;2023-03-04T01:16:59;51.47;;;26.65;;
78053;SDS011;67726;45.636;11.752;2023-03-04T01:19:25;56.73;;;27.10;;
78053;SDS011;67726;45.636;11.752;2023-03-04T01:21:51;56.38;;;26.88;;
78053;SDS011;67726;45.636;11.752;2023-03-04T01:24:16;52.63;;;27.00;;
78053;SDS011;67726;45.636;11.752;2023-03-04T01:26:42;50.42;;;26.50;;
78053;SDS011;67726;45.636;11.752;2023-03-04T01:29:08;47.97;;;26.00;;
78053;SDS011;67726;45.636;11.752;2023-03-04T01:31:33;47.50;;;25.20;;
78053;SDS011;67726;45.636;11.752;2023-03-04T01:33:59;52.83;;;26.47;;
78053;SDS011;67726;45.636;11.752;2023-03-04T01:36:24;47.43;;;26.67;;
78053;SDS011;67726;45.636;11.752;2023-03-04T01:38:50;47.13;;;26.55;;
78053;SDS011;67726;45.636;11.752;2023-03-04T01:41:16;55.63;;;26.97;;
78053;SDS011;67726;45.636;11.752;2023-03-04T01:43:46;51.72;;;27.92;;
78053;SDS011;67726;45.636;11.752;2023-03-04T01:46:12;44.63;;;25.88;;
78053;SDS011;67726;45.636;11.752;2023-03-04T01:48:41;48.33;;;25.27;;
78053;SDS011;67726;45.636;11.752;2023-03-04T01:51:12;51.53;;;25.95;;
78053;SDS011;67726;45.636;11.752;2023-03-04T01:53:40;45.88;;;23.77;;
78053;SDS011;67726;45.636;11.752;2023-03-04T01:56:18;47.33;;;24.88;;
78053;SDS011;67726;45.636;11.752;2023-03-04T02:01:43;42.77;;;21.43;;
78053;SDS011;67726;45.636;11.752;2023-03-04T02:04:11;45.60;;;24.35;;
78053;SDS011;67726;45.636;11.752;2023-03-04T02:06:38;51.55;;;26.48;;
78053;SDS011;67726;45.636;11.752;2023-03-04T02:09:05;44.03;;;23.13;;
78053;SDS011;67726;45.636;11.752;2023-03-04T02:11:31;45.88;;;23.70;;
78053;SDS011;67726;45.636;11.752;2023-03-04T02:13:58;55.73;;;28.80;;
78053;SDS011;67726;45.636;11.752;2023-03-04T02:16:24;61.75;;;29.60;;
78053;SDS011;67726;45.636;11.752;2023-03-04T02:18:50;55.42;;;29.30;;
78053;SDS011;67726;45.636;11.752;2023-03-04T02:21:22;53.20;;;25.47;;
78053;SDS011;67726;45.636;11.752;2023-03-04T02:28:43;53.83;;;26.13;;
78053;SDS011;67726;45.636;11.752;2023-03-04T02:31:13;52.47;;;26.55;;
78053;SDS011;67726;45.636;11.752;2023-03-04T02:33:47;48.63;;;24.92;;
78053;SDS011;67726;45.636;11.752;2023-03-04T02:36:13;47.75;;;24.00;;
78053;SDS011;67726;45.636;11.752;2023-03-04T02:38:38;49.13;;;25.67;;
78053;SDS011;67726;45.636;11.752;2023-03-04T02:41:04;49.80;;;25.20;;
78053;SDS011;67726;45.636;11.752;2023-03-04T02:43:33;45.97;;;23.90;;
78053;SDS011;67726;45.636;11.752;2023-03-04T02:45:58;46.72;;;23.98;;
78053;SDS011;67726;45.636;11.752;2023-03-04T02:48:24;47.23;;;24.83;;
78053;SDS011;67726;45.636;11.752;2023-03-04T02:50:50;49.97;;;22.70;;
78053;SDS011;67726;45.636;11.752;2023-03-04T02:53:17;49.53;;;24.30;;
78053;SDS011;67726;45.636;11.752;2023-03-04T02:55:44;46.92;;;24.20;;
78053;SDS011;67726;45.636;11.752;2023-03-04T02:58:10;45.17;;;23.70;;
78053;SDS011;67726;45.636;11.752;2023-03-04T03:00:36;44.35;;;23.25;;
78053;SDS011;67726;45.636;11.752;2023-03-04T03:03:02;44.00;;;23.17;;
78053;SDS011;67726;45.636;11.752;2023-03-04T03:05:29;53.03;;;25.30;;
78053;SDS011;67726;45.636;11.752;2023-03-04T03:07:56;41.10;;;23.50;;
78053;SDS011;67726;45.636;11.752;2023-03-04T03:10:22;47.73;;;24.07;;
78053;SDS011;67726;45.636;11.752;2023-03-04T03:12:48;46.95;;;23.50;;
78053;SDS011;67726;45.636;11.752;2023-03-04T03:15:14;46.10;;;24.77;;
78053;SDS011;67726;45.636;11.752;2023-03-04T03:17:39;41.88;;;22.60;;
78053;SDS011;67726;45.636;11.752;2023-03-04T03:20:05;46.85;;;24.38;;
78053;SDS011;67726;45.636;11.752;2023-03-04T03:22:32;46.23;;;24.40;;
78053;SDS011;67726;45.636;11.752;2023-03-04T03:24:58;44.88;;;23.98;;
78053;SDS011;67726;45.636;11.752;2023-03-04T03:27:23;44.87;;;23.17;;
78053;SDS011;67726;45.636;11.752;2023-03-04T03:29:49;42.47;;;23.00;;
78053;SDS011;67726;45.636;11.752;2023-03-04T03:32:15;48.80;;;25.30;;
78053;SDS011;67726;45.636;11.752;2023-03-04T03:34:40;47.25;;;23.98;;
78053;SDS011;67726;45.636;11.752;2023-03-04T03:37:06;47.10;;;23.97;;
78053;SDS011;67726;45.636;11.752;2023-03-04T03:39:32;50.60;;;26.57;;
78053;SDS011;67726;45.636;11.752;2023-03-04T03:41:57;46.25;;;25.30;;
78053;SDS011;67726;45.636;11.752;2023-03-04T03:44:23;47.23;;;24.93;;
78053;SDS011;67726;45.636;11.752;2023-03-04T03:46:48;46.72;;;24.67;;
78053;SDS011;67726;45.636;11.752;2023-03-04T03:49:14;40.63;;;23.17;;
78053;SDS011;67726;45.636;11.752;2023-03-04T03:51:41;44.05;;;22.48;;
78053;SDS011;67726;45.636;11.752;2023-03-04T03:54:07;37.93;;;20.87;;
78053;SDS011;67726;45.636;11.752;2023-03-04T03:56:33;41.88;;;19.33;;
78053;SDS011;67726;45.636;11.752;2023-03-04T03:58:58;39.58;;;20.60;;
78053;SDS011;67726;45.636;11.752;2023-03-04T04:01:24;43.20;;;21.90;;
78053;SDS011;67726;45.636;11.752;2023-03-04T04:03:49;38.07;;;20.97;;
78053;SDS011;67726;45.636;11.752;2023-03-04T04:06:15;38.05;;;20.38;;
78053;SDS011;67726;45.636;11.752;2023-03-04T04:08:41;40.03;;;19.83;;
78053;SDS011;67726;45.636;11.752;2023-03-04T04:11:10;35.50;;;19.88;;
78053;SDS011;67726;45.636;11.752;2023-03-04T04:13:36;38.47;;;20.65;;
78053;SDS011;67726;45.636;11.752;2023-03-04T04:16:03;38.63;;;20.83;;
78053;SDS011;67726;45.636;11.752;2023-03-04T04:18:29;37.60;;;19.55;;
78053;SDS011;67726;45.636;11.752;2023-03-04T04:20:55;38.60;;;19.75;;
78053;SDS011;67726;45.636;11.752;2023-03-04T04:23:20;34.90;;;19.50;;
78053;SDS011;67726;45.636;11.752;2023-03-04T04:25:46;39.75;;;18.88;;
78053;SDS011;67726;45.636;11.752;2023-03-04T04:28:12;37.47;;;19.37;;
78053;SDS011;67726;45.636;11.752;2023-03-04T04:30:38;38.47;;;19.08;;
78053;SDS011;67726;45.636;11.752;2023-03-04T04:33:04;37.70;;;18.50;;
78053;SDS011;67726;45.636;11.752;2023-03-04T04:35:34;36.50;;;19.70;;
78053;SDS011;67726;45.636;11.752;2023-03-04T04:38:02;39.95;;;18.73;;
78053;SDS011;67726;45.636;11.752;2023-03-04T04:40:29;33.72;;;18.17;;
78053;SDS011;67726;45.636;11.752;2023-03-04T04:42:54;35.70;;;17.67;;
78053;SDS011;67726;45.636;11.752;2023-03-04T04:45:21;36.95;;;18.80;;
78053;SDS011;67726;45.636;11.752;2023-03-04T04:47:49;34.63;;;17.53;;
78053;SDS011;67726;45.636;11.752;2023-03-04T04:50:19;37.03;;;17.88;;
78053;SDS011;67726;45.636;11.752;2023-03-04T04:52:45;30.90;;;18.17;;
78053;SDS011;67726;45.636;11.752;2023-03-04T04:55:11;36.63;;;19.00;;
78053;SDS011;67726;45.636;11.752;2023-03-04T04:57:36;35.67;;;18.48;;
78053;SDS011;67726;45.636;11.752;2023-03-04T05:00:05;31.33;;;17.27;;
78053;SDS011;67726;45.636;11.752;2023-03-04T05:02:31;35.45;;;18.27;;
78053;SDS011;67726;45.636;11.752;2023-03-04T05:05:00;38.03;;;18.58;;
78053;SDS011;67726;45.636;11.752;2023-03-04T05:07:27;32.55;;;18.00;;
78053;SDS011;67726;45.636;11.752;2023-03-04T05:09:53;30.27;;;16.27;;
78053;SDS011;67726;45.636;11.752;2023-03-04T05:12:18;37.33;;;19.57;;
78053;SDS011;67726;45.636;11.752;2023-03-04T05:14:44;37.77;;;18.90;;
78053;SDS011;67726;45.636;11.752;2023-03-04T05:17:09;33.05;;;18.73;;
78053;SDS011;67726;45.636;11.752;2023-03-04T05:19:35;36.33;;;19.10;;
78053;SDS011;67726;45.636;11.752;2023-03-04T05:22:01;37.50;;;18.92;;
78053;SDS011;67726;45.636;11.752;2023-03-04T05:24:26;42.30;;;19.03;;
78053;SDS011;67726;45.636;11.752;2023-03-04T05:26:52;37.63;;;18.08;;
78053;SDS011;67726;45.636;11.752;2023-03-04T05:29:18;35.70;;;18.77;;
78053;SDS011;67726;45.636;11.752;2023-03-04T05:31:43;43.75;;;20.65;;
78053;SDS011;67726;45.636;11.752;2023-03-04T05:34:09;46.07;;;19.40;;
78053;SDS011;67726;45.636;11.752;2023-03-04T05:36:35;42.77;;;19.87;;
78053;SDS011;67726;45.636;11.752;2023-03-04T05:39:00;48.03;;;21.05;;
78053;SDS011;67726;45.636;11.752;2023-03-04T05:41:26;47.57;;;22.07;;
78053;SDS011;67726;45.636;11.752;2023-03-04T05:43:51;53.20;;;19.90;;
78053;SDS011;67726;45.636;11.752;2023-03-04T05:46:17;68.83;;;23.77;;
78053;SDS011;67726;45.636;11.752;2023-03-04T05:48:49;62.38;;;24.50;;
78053;SDS011;67726;45.636;11.752;2023-03-04T05:51:18;92.57;;;33.50;;
78053;SDS011;67726;45.636;11.752;2023-03-04T05:53:45;142.50;;;40.75;;
78053;SDS011;67726;45.636;11.752;2023-03-04T05:56:14;95.33;;;31.90;;
78053;SDS011;67726;45.636;11.752;2023-03-04T05:58:41;83.25;;;30.92;;
78053;SDS011;67726;45.636;11.752;2023-03-04T06:01:08;58.65;;;24.88;;
78053;SDS011;67726;45.636;11.752;2023-03-04T06:03:34;46.20;;;20.42;;
78053;SDS011;67726;45.636;11.752;2023-03-04T06:06:01;42.30;;;20.63;;
78053;SDS011;67726;45.636;11.752;2023-03-04T06:08:27;47.08;;;20.45;;
78053;SDS011;67726;45.636;11.752;2023-03-04T06:10:53;50.13;;;21.55;;
78053;SDS011;67726;45.636;11.752;2023-03-04T06:13:21;55.05;;;22.55;;
78053;SDS011;67726;45.636;11.752;2023-03-04T06:15:52;51.23;;;21.97;;
78053;SDS011;67726;45.636;11.752;2023-03-04T06:18:22;51.05;;;22.10;;
78053;SDS011;67726;45.636;11.752;2023-03-04T06:20:48;50.55;;;22.25;;
78053;SDS011;67726;45.636;11.752;2023-03-04T06:23:14;49.13;;;20.47;;
78053;SDS011;67726;45.636;11.752;2023-03-04T06:25:39;49.60;;;23.57;;
78053;SDS011;67726;45.636;11.752;2023-03-04T06:28:05;65.43;;;31.30;;
78053;SDS011;67726;45.636;11.752;2023-03-04T06:30:31;83.07;;;40.87;;
78053;SDS011;67726;45.636;11.752;2023-03-04T06:32:56;64.73;;;29.87;;
78053;SDS011;67726;45.636;11.752;2023-03-04T06:35:22;43.75;;;22.58;;
78053;SDS011;67726;45.636;11.752;2023-03-04T06:37:48;40.70;;;21.40;;
78053;SDS011;67726;45.636;11.752;2023-03-04T06:40:13;37.95;;;19.42;;
78053;SDS011;67726;45.636;11.752;2023-03-04T06:42:41;38.17;;;19.10;;
78053;SDS011;67726;45.636;11.752;2023-03-04T06:45:07;34.10;;;17.77;;
78053;SDS011;67726;45.636;11.752;2023-03-04T06:47:34;37.25;;;19.25;;
78053;SDS011;67726;45.636;11.752;2023-03-04T06:50:00;32.03;;;17.95;;
78053;SDS011;67726;45.636;11.752;2023-03-04T06:52:27;31.23;;;18.30;;
78053;SDS011;67726;45.636;11.752;2023-03-04T06:54:53;50.80;;;26.07;;
78053;SDS011;67726;45.636;11.752;2023-03-04T06:57:18;103.00;;;47.03;;
78053;SDS011;67726;45.636;11.752;2023-03-04T06:59:44;53.25;;;26.85;;
78053;SDS011;67726;45.636;11.752;2023-03-04T07:02:11;72.10;;;34.08;;
78053;SDS011;67726;45.636;11.752;2023-03-04T07:04:37;76.40;;;35.57;;
78053;SDS011;67726;45.636;11.752;2023-03-04T07:07:03;111.00;;;43.20;;
78053;SDS011;67726;45.636;11.752;2023-03-04T07:09:28;147.95;;;61.80;;
78053;SDS011;67726;45.636;11.752;2023-03-04T07:11:54;71.17;;;33.70;;
78053;SDS011;67726;45.636;11.752;2023-03-04T07:14:20;36.58;;;18.35;;
78053;SDS011;67726;45.636;11.752;2023-03-04T07:16:46;30.87;;;15.33;;
78053;SDS011;67726;45.636;11.752;2023-03-04T07:19:11;37.92;;;20.63;;
78053;SDS011;67726;45.636;11.752;2023-03-04T07:21:37;36.97;;;20.83;;
78053;SDS011;67726;45.636;11.752;2023-03-04T07:24:03;28.45;;;15.60;;
78053;SDS011;67726;45.636;11.752;2023-03-04T07:26:29;25.67;;;14.63;;
78053;SDS011;67726;45.636;11.752;2023-03-04T07:28:54;24.35;;;13.05;;
78053;SDS011;67726;45.636;11.752;2023-03-04T07:31:26;25.02;;;13.52;;
78053;SDS011;67726;45.636;11.752;2023-03-04T07:33:57;21.30;;;12.87;;
78053;SDS011;67726;45.636;11.752;2023-03-04T07:36:36;25.77;;;13.43;;
78053;SDS011;67726;45.636;11.752;2023-03-04T07:39:02;22.67;;;12.90;;
78053;SDS011;67726;45.636;11.752;2023-03-04T07:41:28;23.50;;;12.82;;
78053;SDS011;67726;45.636;11.752;2023-03-04T07:43:55;21.35;;;12.90;;
78053;SDS011;67726;45.636;11.752;2023-03-04T07:46:21;24.07;;;12.90;;
78053;SDS011;67726;45.636;11.752;2023-03-04T07:48:47;21.42;;;12.23;;
78053;SDS011;67726;45.636;11.752;2023-03-04T07:51:17;23.87;;;12.23;;
78053;SDS011;67726;45.636;11.752;2023-03-04T07:53:45;21.67;;;12.70;;
78053;SDS011;67726;45.636;11.752;2023-03-04T07:56:16;28.02;;;13.68;;
78053;SDS011;67726;45.636;11.752;2023-03-04T07:58:44;24.95;;;12.60;;
78053;SDS011;67726;45.636;11.752;2023-03-04T08:01:11;23.13;;;13.25;;
78053;SDS011;67726;45.636;11.752;2023-03-04T08:03:47;22.77;;;13.30;;
78053;SDS011;67726;45.636;11.752;2023-03-04T08:06:13;24.88;;;14.02;;
78053;SDS011;67726;45.636;11.752;2023-03-04T08:08:40;26.02;;;14.35;;
78053;SDS011;67726;45.636;11.752;2023-03-04T08:11:16;24.30;;;14.20;;
78053;SDS011;67726;45.636;11.752;2023-03-04T08:13:43;22.08;;;14.45;;
78053;SDS011;67726;45.636;11.752;2023-03-04T08:16:13;24.65;;;14.55;;
78053;SDS011;67726;45.636;11.752;2023-03-04T08:18:43;23.98;;;13.30;;
78053;SDS011;67726;45.636;11.752;2023-03-04T08:21:12;22.38;;;13.05;;
78053;SDS011;67726;45.636;11.752;2023-03-04T08:23:40;23.03;;;12.80;;
78053;SDS011;67726;45.636;11.752;2023-03-04T08:26:09;20.38;;;12.88;;
78053;SDS011;67726;45.636;11.752;2023-03-04T08:28:38;23.38;;;12.52;;
78053;SDS011;67726;45.636;11.752;2023-03-04T08:31:05;21.95;;;12.00;;
78053;SDS011;67726;45.636;11.752;2023-03-04T08:33:31;21.25;;;12.15;;
78053;SDS011;67726;45.636;11.752;2023-03-04T08:35:58;21.50;;;12.37;;
78053;SDS011;67726;45.636;11.752;2023-03-04T08:38:23;16.27;;;10.38;;
78053;SDS011;67726;45.636;11.752;2023-03-04T08:40:53;19.00;;;10.43;;
78053;SDS011;67726;45.636;11.752;2023-03-04T08:43:20;19.48;;;9.70;;
78053;SDS011;67726;45.636;11.752;2023-03-04T08:45:47;18.83;;;9.80;;
78053;SDS011;67726;45.636;11.752;2023-03-04T08:48:13;15.32;;;9.32;;
78053;SDS011;67726;45.636;11.752;2023-03-04T08:50:39;17.08;;;10.45;;
78053;SDS011;67726;45.636;11.752;2023-03-04T08:53:04;18.90;;;10.90;;
78053;SDS011;67726;45.636;11.752;2023-03-04T08:55:30;20.07;;;11.87;;
78053;SDS011;67726;45.636;11.752;2023-03-04T08:57:56;23.13;;;12.87;;
78053;SDS011;67726;45.636;11.752;2023-03-04T09:00:21;22.43;;;13.80;;
78053;SDS011;67726;45.636;11.752;2023-03-04T09:02:48;26.60;;;14.80;;
78053;SDS011;67726;45.636;11.752;2023-03-04T09:05:13;23.35;;;14.55;;
78053;SDS011;67726;45.636;11.752;2023-03-04T09:07:39;24.15;;;14.45;;
78053;SDS011;67726;45.636;11.752;2023-03-04T09:10:05;18.83;;;10.73;;
78053;SDS011;67726;45.636;11.752;2023-03-04T09:12:31;17.38;;;10.30;;
78053;SDS011;67726;45.636;11.752;2023-03-04T09:14:56;19.30;;;11.37;;
78053;SDS011;67726;45.636;11.752;2023-03-04T09:17:23;17.80;;;10.48;;
78053;SDS011;67726;45.636;11.752;2023-03-04T09:19:48;18.88;;;10.15;;
78053;SDS011;67726;45.636;11.752;2023-03-04T09:22:14;18.07;;;10.03;;
78053;SDS011;67726;45.636;11.752;2023-03-04T09:24:40;17.37;;;10.63;;
78053;SDS011;67726;45.636;11.752;2023-03-04T09:27:05;21.77;;;11.33;;
78053;SDS011;67726;45.636;11.752;2023-03-04T09:29:31;17.93;;;10.90;;
78053;SDS011;67726;45.636;11.752;2023-03-04T09:31:57;21.13;;;10.93;;
78053;SDS011;67726;45.636;11.752;2023-03-04T09:34:22;18.63;;;10.43;;
78053;SDS011;67726;45.636;11.752;2023-03-04T09:36:48;18.88;;;9.55;;
78053;SDS011;67726;45.636;11.752;2023-03-04T09:39:13;18.07;;;10.00;;
78053;SDS011;67726;45.636;11.752;2023-03-04T09:41:41;17.27;;;10.25;;
78053;SDS011;67726;45.636;11.752;2023-03-04T09:44:14;17.47;;;10.80;;
78053;SDS011;67726;45.636;11.752;2023-03-04T09:46:49;19.40;;;10.68;;
78053;SDS011;67726;45.636;11.752;2023-03-04T09:49:16;20.63;;;11.50;;
78053;SDS011;67726;45.636;11.752;2023-03-04T09:56:50;19.53;;;11.40;;
78053;SDS011;67726;45.636;11.752;2023-03-04T10:01:55;19.40;;;11.52;;
78053;SDS011;67726;45.636;11.752;2023-03-04T10:04:30;20.15;;;12.15;;
78053;SDS011;67726;45.636;11.752;2023-03-04T10:07:01;19.05;;;10.95;;
78053;SDS011;67726;45.636;11.752;2023-03-04T10:09:31;18.53;;;11.30;;
78053;SDS011;67726;45.636;11.752;2023-03-04T10:12:10;19.95;;;10.77;;
78053;SDS011;67726;45.636;11.752;2023-03-04T10:14:39;19.75;;;11.63;;
78053;SDS011;67726;45.636;11.752;2023-03-04T10:17:13;18.65;;;11.25;;
78053;SDS011;67726;45.636;11.752;2023-03-04T10:19:56;20.58;;;10.70;;
78053;SDS011;67726;45.636;11.752;2023-03-04T10:22:35;21.00;;;10.73;;
78053;SDS011;67726;45.636;11.752;2023-03-04T10:27:55;21.55;;;11.10;;
78053;SDS011;67726;45.636;11.752;2023-03-04T10:30:42;18.75;;;10.32;;
78053;SDS011;67726;45.636;11.752;2023-03-04T10:33:30;21.88;;;11.30;;
78053;SDS011;67726;45.636;11.752;2023-03-04T10:38:35;18.52;;;11.27;;
78053;SDS011;67726;45.636;11.752;2023-03-04T10:41:22;21.27;;;11.10;;
78053;SDS011;67726;45.636;11.752;2023-03-04T10:46:37;25.10;;;11.00;;
78053;SDS011;67726;45.636;11.752;2023-03-04T10:49:04;20.93;;;11.47;;
78053;SDS011;67726;45.636;11.752;2023-03-04T10:51:29;21.33;;;11.88;;
78053;SDS011;67726;45.636;11.752;2023-03-04T10:53:59;19.65;;;10.80;;
78053;SDS011;67726;45.636;11.752;2023-03-04T10:56:34;18.97;;;10.70;;
78053;SDS011;67726;45.636;11.752;2023-03-04T11:02:23;22.30;;;11.18;;
78053;SDS011;67726;45.636;11.752;2023-03-04T11:07:43;21.05;;;11.90;;
78053;SDS011;67726;45.636;11.752;2023-03-04T11:10:19;20.97;;;11.53;;
78053;SDS011;67726;45.636;11.752;2023-03-04T11:12:50;23.52;;;12.23;;
78053;SDS011;67726;45.636;11.752;2023-03-04T11:15:23;24.10;;;11.82;;
78053;SDS011;67726;45.636;11.752;2023-03-04T11:18:08;22.58;;;12.43;;
78053;SDS011;67726;45.636;11.752;2023-03-04T11:20:38;21.30;;;12.88;;
78053;SDS011;67726;45.636;11.752;2023-03-04T11:23:49;22.63;;;12.60;;
78053;SDS011;67726;45.636;11.752;2023-03-04T11:26:03;22.65;;;12.70;;
78053;SDS011;67726;45.636;11.752;2023-03-04T11:28:48;21.42;;;12.88;;
78053;SDS011;67726;45.636;11.752;2023-03-04T11:31:22;27.02;;;14.55;;
78053;SDS011;67726;45.636;11.752;2023-03-04T11:33:58;23.85;;;13.23;;
78053;SDS011;67726;45.636;11.752;2023-03-04T11:36:59;26.93;;;12.90;;
78053;SDS011;67726;45.636;11.752;2023-03-04T11:39:40;23.17;;;12.65;;
78053;SDS011;67726;45.636;11.752;2023-03-04T11:45:01;27.65;;;14.02;;
78053;SDS011;67726;45.636;11.752;2023-03-04T11:52:59;24.52;;;13.38;;
78053;SDS011;67726;45.636;11.752;2023-03-04T11:55:34;22.25;;;13.27;;
78053;SDS011;67726;45.636;11.752;2023-03-04T12:11:41;20.42;;;11.25;;
78053;SDS011;67726;45.636;11.752;2023-03-04T12:14:23;22.45;;;11.95;;
78053;SDS011;67726;45.636;11.752;2023-03-04T12:22:48;24.52;;;11.20;;
78053;SDS011;67726;45.636;11.752;2023-03-04T12:28:02;22.55;;;12.07;;
78053;SDS011;67726;45.636;11.752;2023-03-04T12:36:11;20.90;;;12.23;;
78053;SDS011;67726;45.636;11.752;2023-03-04T12:43:57;32.08;;;17.90;;
78053;SDS011;67726;45.636;11.752;2023-03-04T12:51:55;24.20;;;14.43;;
78053;SDS011;67726;45.636;11.752;2023-03-04T12:54:48;24.35;;;13.30;;
78053;SDS011;67726;45.636;11.752;2023-03-04T12:57:17;22.88;;;11.40;;
78053;SDS011;67726;45.636;11.752;2023-03-04T13:22:24;24.17;;;14.05;;
78053;SDS011;67726;45.636;11.752;2023-03-04T13:28:05;23.08;;;13.30;;
78053;SDS011;67726;45.636;11.752;2023-03-04T13:41:19;24.98;;;14.75;;
78053;SDS011;67726;45.636;11.752;2023-03-04T13:43:51;23.85;;;14.80;;
78053;SDS011;67726;45.636;11.752;2023-03-04T13:51:16;24.88;;;14.38;;
78053;SDS011;67726;45.636;11.752;2023-03-04T13:59:02;23.52;;;14.45;;
78053;SDS011;67726;45.636;11.752;2023-03-04T14:01:29;24.30;;;14.85;;
78053;SDS011;67726;45.636;11.752;2023-03-04T14:03:57;24.85;;;15.02;;
78053;SDS011;67726;45.636;11.752;2023-03-04T14:06:24;27.83;;;16.03;;
78053;SDS011;67726;45.636;11.752;2023-03-04T14:08:52;24.42;;;14.32;;
78053;SDS011;67726;45.636;11.752;2023-03-04T14:14:07;28.85;;;16.35;;
78053;SDS011;67726;45.636;11.752;2023-03-04T14:16:38;27.63;;;15.15;;
78053;SDS011;67726;45.636;11.752;2023-03-04T14:19:14;28.13;;;16.20;;
78053;SDS011;67726;45.636;11.752;2023-03-04T14:21:44;28.63;;;15.13;;
78053;SDS011;67726;45.636;11.752;2023-03-04T14:24:11;27.70;;;15.38;;
78053;SDS011;67726;45.636;11.752;2023-03-04T14:26:39;27.85;;;16.52;;
78053;SDS011;67726;45.636;11.752;2023-03-04T14:29:17;29.07;;;17.23;;
78053;SDS011;67726;45.636;11.752;2023-03-04T14:31:53;28.50;;;17.08;;
78053;SDS011;67726;45.636;11.752;2023-03-04T14:34:24;28.88;;;16.55;;
78053;SDS011;67726;45.636;11.752;2023-03-04T14:37:02;28.33;;;16.15;;
78053;SDS011;67726;45.636;11.752;2023-03-04T14:39:41;25.47;;;16.47;;
78053;SDS011;67726;45.636;11.752;2023-03-04T14:42:09;25.77;;;15.90;;
78053;SDS011;67726;45.636;11.752;2023-03-04T14:44:55;28.13;;;15.75;;
78053;SDS011;67726;45.636;11.752;2023-03-04T14:49:50;28.13;;;15.38;;
78053;SDS011;67726;45.636;11.752;2023-03-04T14:52:33;24.43;;;15.60;;
78053;SDS011;67726;45.636;11.752;2023-03-04T14:55:22;29.73;;;16.02;;
78053;SDS011;67726;45.636;11.752;2023-03-04T14:58:05;28.45;;;15.23;;
78053;SDS011;67726;45.636;11.752;2023-03-04T15:00:32;29.67;;;14.80;;
78053;SDS011;67726;45.636;11.752;2023-03-04T15:03:03;27.13;;;14.90;;
78053;SDS011;67726;45.636;11.752;2023-03-04T15:05:43;29.33;;;16.63;;
78053;SDS011;67726;45.636;11.752;2023-03-04T15:08:21;32.00;;;16.20;;
78053;SDS011;67726;45.636;11.752;2023-03-04T15:11:07;27.85;;;16.35;;
78053;SDS011;67726;45.636;11.752;2023-03-04T15:13:46;28.67;;;16.50;;
78053;SDS011;67726;45.636;11.752;2023-03-04T15:16:14;34.77;;;18.93;;
78053;SDS011;67726;45.636;11.752;2023-03-04T15:18:55;30.05;;;16.33;;
78053;SDS011;67726;45.636;11.752;2023-03-04T15:21:29;24.80;;;13.73;;
78053;SDS011;67726;45.636;11.752;2023-03-04T15:24:00;23.58;;;13.32;;
78053;SDS011;67726;45.636;11.752;2023-03-04T15:26:28;26.52;;;12.50;;
78053;SDS011;67726;45.636;11.752;2023-03-04T15:28:55;22.17;;;12.93;;
78053;SDS011;67726;45.636;11.752;2023-03-04T15:31:22;29.00;;;16.55;;
78053;SDS011;67726;45.636;11.752;2023-03-04T15:33:50;31.55;;;17.55;;
78053;SDS011;67726;45.636;11.752;2023-03-04T15:36:17;32.47;;;16.93;;
78053;SDS011;67726;45.636;11.752;2023-03-04T15:38:49;31.42;;;17.30;;
78053;SDS011;67726;45.636;11.752;2023-03-04T15:41:18;30.77;;;17.15;;
78053;SDS011;67726;45.636;11.752;2023-03-04T15:43:49;30.15;;;17.55;;
78053;SDS011;67726;45.636;11.752;2023-03-04T15:46:16;31.85;;;17.70;;
78053;SDS011;67726;45.636;11.752;2023-03-04T15:48:41;33.03;;;18.90;;
78053;SDS011;67726;45.636;11.752;2023-03-04T15:51:14;34.20;;;19.02;;
78053;SDS011;67726;45.636;11.752;2023-03-04T15:53:50;36.13;;;20.80;;
78053;SDS011;67726;45.636;11.752;2023-03-04T15:56:24;36.70;;;20.15;;
78053;SDS011;67726;45.636;11.752;2023-03-04T15:58:54;36.25;;;20.20;;
78053;SDS011;67726;45.636;11.752;2023-03-04T16:01:26;36.57;;;21.20;;
78053;SDS011;67726;45.636;11.752;2023-03-04T16:03:52;34.85;;;19.88;;
78053;SDS011;67726;45.636;11.752;2023-03-04T16:06:18;39.77;;;20.70;;
78053;SDS011;67726;45.636;11.752;2023-03-04T16:08:48;34.65;;;20.58;;
78053;SDS011;67726;45.636;11.752;2023-03-04T16:11:15;36.15;;;20.08;;
78053;SDS011;67726;45.636;11.752;2023-03-04T16:13:43;37.55;;;21.38;;
78053;SDS011;67726;45.636;11.752;2023-03-04T16:16:09;35.13;;;20.57;;
78053;SDS011;67726;45.636;11.752;2023-03-04T16:18:36;40.30;;;20.95;;
78053;SDS011;67726;45.636;11.752;2023-03-04T16:21:02;36.45;;;21.33;;
78053;SDS011;67726;45.636;11.752;2023-03-04T16:23:28;39.00;;;22.00;;
78053;SDS011;67726;45.636;11.752;2023-03-04T16:25:57;38.55;;;21.80;;